Chickama, Louisiana
Current Conditions -  °F | °C
As of 6:53 PM on Tuesday 21 Oct 2014 (Local Time) from KAEX Reporting Station
Clear Clear  
Wind Chill: 70°   Ceiling: Unl
Heat Index: 70°   Visibility: 10mi
Dew Point: 63°   Wind: 5mph
Humidity: 78%   Direction: 360°N
Pressure: 29.99"   Gusts: NA
Location:  31.1282°N, 92.3823°W
Report Text: KAEX 212353Z AUTO 36004KT 10SM CLR 21/17 A2999 RMK AO2 SLP159 T02110172 10278 20211 55000
Loading
Personal Weather Stations






























Interactive Weather Map
Tropical Storm Tracking
New forecast layout! Learn more

10-Day Weather Forecast

Advertisements
Track Severe Weather on mobile